In Rescue
 
Open Full Screen Window  High Contrast Mode
Wind Gusting 00 knots
07
May 25, 2022 11:07 PM EDT
Weather Information
Wind Direction
  120 °
Wind Speed
  07 kt (8 mph)
Wind Gust
  00 kt (0 mph)
Altimeter
29.95 in
Visibility
7 SM
Temperature
12° C
54° F
Dewpoint
12° C
54° F
Humidity
100%
1hr Rain Fall
00.02 in.
24hr Rain Fall
00.26 in.
Sky Condition
Overcast @ 10,000 ft
Broken @ 6,000 ft
Scattered @ 4,500 ft
VFR

METAR KOSC 260307Z AUTO 12007KT 7SM SCT045 BKN060 OVC100 12/12 A2995 RMK AO2 T01150115 P0002

FAA Disclaimer: The data displayed is for advisory purposes only and is not to be used for flight planning or operations.